sensor_id;sensor_type;location;lat;lon;timestamp;temperature;humidity
5476;DHT22;2760;50.000;9.194;2023-04-29T00:01:34;12.70;99.90
5476;DHT22;2760;50.000;9.194;2023-04-29T00:04:01;12.70;99.90
5476;DHT22;2760;50.000;9.194;2023-04-29T00:06:31;12.70;99.90
5476;DHT22;2760;50.000;9.194;2023-04-29T00:08:58;12.70;99.90
5476;DHT22;2760;50.000;9.194;2023-04-29T00:13:52;12.60;99.90
5476;DHT22;2760;50.000;9.194;2023-04-29T00:18:48;12.60;99.90
5476;DHT22;2760;50.000;9.194;2023-04-29T00:28:38;12.50;99.90
5476;DHT22;2760;50.000;9.194;2023-04-29T00:31:05;12.50;99.90
5476;DHT22;2760;50.000;9.194;2023-04-29T00:33:32;12.40;99.90
5476;DHT22;2760;50.000;9.194;2023-04-29T00:36:00;13.50;99.90
5476;DHT22;2760;50.000;9.194;2023-04-29T00:38:28;14.50;99.90
5476;DHT22;2760;50.000;9.194;2023-04-29T00:40:56;13.80;99.90
5476;DHT22;2760;50.000;9.194;2023-04-29T00:43:23;14.00;99.90
5476;DHT22;2760;50.000;9.194;2023-04-29T00:45:50;12.70;99.90
5476;DHT22;2760;50.000;9.194;2023-04-29T00:48:16;12.60;99.90
5476;DHT22;2760;50.000;9.194;2023-04-29T00:50:44;12.60;99.90
5476;DHT22;2760;50.000;9.194;2023-04-29T00:53:12;12.60;99.90
5476;DHT22;2760;50.000;9.194;2023-04-29T00:55:40;12.60;99.90
5476;DHT22;2760;50.000;9.194;2023-04-29T00:58:09;15.10;99.90
5476;DHT22;2760;50.000;9.194;2023-04-29T01:00:38;12.60;99.90
5476;DHT22;2760;50.000;9.194;2023-04-29T01:03:08;15.00;99.90
5476;DHT22;2760;50.000;9.194;2023-04-29T01:05:35;14.10;99.90
5476;DHT22;2760;50.000;9.194;2023-04-29T01:08:15;12.60;99.90
5476;DHT22;2760;50.000;9.194;2023-04-29T01:10:53;14.70;99.90
5476;DHT22;2760;50.000;9.194;2023-04-29T01:13:28;12.60;99.90
5476;DHT22;2760;50.000;9.194;2023-04-29T01:16:00;12.60;99.90
5476;DHT22;2760;50.000;9.194;2023-04-29T01:18:32;12.50;99.90
5476;DHT22;2760;50.000;9.194;2023-04-29T01:21:00;12.50;99.90
5476;DHT22;2760;50.000;9.194;2023-04-29T01:23:30;14.00;99.90
5476;DHT22;2760;50.000;9.194;2023-04-29T01:25:57;12.60;99.90
5476;DHT22;2760;50.000;9.194;2023-04-29T01:28:48;12.70;99.90
5476;DHT22;2760;50.000;9.194;2023-04-29T01:31:20;12.70;99.90
5476;DHT22;2760;50.000;9.194;2023-04-29T01:33:56;12.70;99.90
5476;DHT22;2760;50.000;9.194;2023-04-29T01:36:31;12.60;99.90
5476;DHT22;2760;50.000;9.194;2023-04-29T01:39:08;12.60;99.90
5476;DHT22;2760;50.000;9.194;2023-04-29T01:41:56;14.10;99.90
5476;DHT22;2760;50.000;9.194;2023-04-29T01:44:28;12.60;99.90
5476;DHT22;2760;50.000;9.194;2023-04-29T01:46:58;13.50;99.90
5476;DHT22;2760;50.000;9.194;2023-04-29T01:49:35;12.50;99.90
5476;DHT22;2760;50.000;9.194;2023-04-29T01:52:02;12.70;99.90
5476;DHT22;2760;50.000;9.194;2023-04-29T01:54:32;12.50;99.90
5476;DHT22;2760;50.000;9.194;2023-04-29T01:57:01;12.60;99.90
5476;DHT22;2760;50.000;9.194;2023-04-29T01:59:50;12.50;99.90
5476;DHT22;2760;50.000;9.194;2023-04-29T02:02:36;12.50;99.90
5476;DHT22;2760;50.000;9.194;2023-04-29T02:05:29;12.50;99.90
5476;DHT22;2760;50.000;9.194;2023-04-29T02:08:00;12.60;99.90
5476;DHT22;2760;50.000;9.194;2023-04-29T02:10:31;13.10;99.90
5476;DHT22;2760;50.000;9.194;2023-04-29T02:13:18;13.80;99.90
5476;DHT22;2760;50.000;9.194;2023-04-29T02:18:12;12.60;99.90
5476;DHT22;2760;50.000;9.194;2023-04-29T02:20:39;12.50;99.90
5476;DHT22;2760;50.000;9.194;2023-04-29T02:23:06;12.50;99.90
5476;DHT22;2760;50.000;9.194;2023-04-29T02:25:36;12.70;99.90
5476;DHT22;2760;50.000;9.194;2023-04-29T02:28:03;12.50;99.90
5476;DHT22;2760;50.000;9.194;2023-04-29T02:30:30;12.60;99.90
5476;DHT22;2760;50.000;9.194;2023-04-29T02:32:58;12.50;99.90
5476;DHT22;2760;50.000;9.194;2023-04-29T02:35:25;15.20;99.90
5476;DHT22;2760;50.000;9.194;2023-04-29T02:37:53;13.90;99.90
5476;DHT22;2760;50.000;9.194;2023-04-29T02:40:20;12.60;99.90
5476;DHT22;2760;50.000;9.194;2023-04-29T02:42:48;12.50;99.90
5476;DHT22;2760;50.000;9.194;2023-04-29T02:45:15;12.60;99.90
5476;DHT22;2760;50.000;9.194;2023-04-29T02:50:10;12.50;99.90
5476;DHT22;2760;50.000;9.194;2023-04-29T02:52:39;12.50;99.90
5476;DHT22;2760;50.000;9.194;2023-04-29T02:55:08;12.60;99.90
5476;DHT22;2760;50.000;9.194;2023-04-29T02:57:35;12.40;99.90
5476;DHT22;2760;50.000;9.194;2023-04-29T03:00:05;12.50;99.90
5476;DHT22;2760;50.000;9.194;2023-04-29T03:02:32;12.50;99.90
5476;DHT22;2760;50.000;9.194;2023-04-29T03:04:59;14.80;99.90
5476;DHT22;2760;50.000;9.194;2023-04-29T03:09:54;12.60;99.90
5476;DHT22;2760;50.000;9.194;2023-04-29T03:12:22;8.90;99.90
5476;DHT22;2760;50.000;9.194;2023-04-29T03:14:49;12.70;99.90
5476;DHT22;2760;50.000;9.194;2023-04-29T03:17:17;12.70;99.90
5476;DHT22;2760;50.000;9.194;2023-04-29T03:19:45;12.60;99.90
5476;DHT22;2760;50.000;9.194;2023-04-29T03:22:14;12.60;99.90
5476;DHT22;2760;50.000;9.194;2023-04-29T03:24:42;12.70;99.90
5476;DHT22;2760;50.000;9.194;2023-04-29T03:27:09;12.80;99.90
5476;DHT22;2760;50.000;9.194;2023-04-29T03:29:38;13.60;99.90
5476;DHT22;2760;50.000;9.194;2023-04-29T03:32:05;13.00;99.90
5476;DHT22;2760;50.000;9.194;2023-04-29T03:34:34;13.40;99.90
5476;DHT22;2760;50.000;9.194;2023-04-29T03:37:14;13.10;99.90
5476;DHT22;2760;50.000;9.194;2023-04-29T03:39:45;13.10;99.90
5476;DHT22;2760;50.000;9.194;2023-04-29T03:42:13;13.10;99.90
5476;DHT22;2760;50.000;9.194;2023-04-29T03:44:40;13.10;99.90
5476;DHT22;2760;50.000;9.194;2023-04-29T03:47:08;13.00;99.90
5476;DHT22;2760;50.000;9.194;2023-04-29T03:49:37;13.10;99.90
5476;DHT22;2760;50.000;9.194;2023-04-29T03:52:04;13.30;99.90
5476;DHT22;2760;50.000;9.194;2023-04-29T03:54:31;13.20;99.90
5476;DHT22;2760;50.000;9.194;2023-04-29T03:56:58;13.20;99.90
5476;DHT22;2760;50.000;9.194;2023-04-29T04:04:23;13.30;99.90
5476;DHT22;2760;50.000;9.194;2023-04-29T04:06:52;13.30;99.90
5476;DHT22;2760;50.000;9.194;2023-04-29T04:09:23;15.70;99.90
5476;DHT22;2760;50.000;9.194;2023-04-29T04:11:50;13.30;99.90
5476;DHT22;2760;50.000;9.194;2023-04-29T04:14:17;13.90;99.90
5476;DHT22;2760;50.000;9.194;2023-04-29T04:16:45;13.40;99.90
5476;DHT22;2760;50.000;9.194;2023-04-29T04:19:12;13.40;99.90
5476;DHT22;2760;50.000;9.194;2023-04-29T04:21:42;13.40;99.90
5476;DHT22;2760;50.000;9.194;2023-04-29T04:24:11;14.90;99.90
5476;DHT22;2760;50.000;9.194;2023-04-29T04:26:38;13.40;99.90
5476;DHT22;2760;50.000;9.194;2023-04-29T04:31:52;13.40;99.90
5476;DHT22;2760;50.000;9.194;2023-04-29T04:36:49;13.40;99.90
5476;DHT22;2760;50.000;9.194;2023-04-29T04:39:18;13.40;99.90
5476;DHT22;2760;50.000;9.194;2023-04-29T04:41:45;14.20;99.90
5476;DHT22;2760;50.000;9.194;2023-04-29T04:44:12;13.20;99.90
5476;DHT22;2760;50.000;9.194;2023-04-29T04:46:50;13.30;99.90
5476;DHT22;2760;50.000;9.194;2023-04-29T04:49:31;13.20;99.90
5476;DHT22;2760;50.000;9.194;2023-04-29T04:51:58;13.70;99.90
5476;DHT22;2760;50.000;9.194;2023-04-29T04:54:27;13.20;99.90
5476;DHT22;2760;50.000;9.194;2023-04-29T04:57:04;15.00;99.90
5476;DHT22;2760;50.000;9.194;2023-04-29T04:59:31;13.40;99.90
5476;DHT22;2760;50.000;9.194;2023-04-29T05:01:58;13.20;99.90
5476;DHT22;2760;50.000;9.194;2023-04-29T05:04:25;13.40;99.90
5476;DHT22;2760;50.000;9.194;2023-04-29T05:06:53;13.40;99.90
5476;DHT22;2760;50.000;9.194;2023-04-29T05:09:21;15.00;99.90
5476;DHT22;2760;50.000;9.194;2023-04-29T05:11:50;13.50;99.90
5476;DHT22;2760;50.000;9.194;2023-04-29T05:14:19;13.40;99.90
5476;DHT22;2760;50.000;9.194;2023-04-29T05:16:46;13.40;99.90
5476;DHT22;2760;50.000;9.194;2023-04-29T05:19:14;13.40;99.90
5476;DHT22;2760;50.000;9.194;2023-04-29T05:21:41;13.40;99.90
5476;DHT22;2760;50.000;9.194;2023-04-29T05:24:09;13.50;99.90
5476;DHT22;2760;50.000;9.194;2023-04-29T05:29:07;13.60;99.90
5476;DHT22;2760;50.000;9.194;2023-04-29T05:31:43;13.50;99.90
5476;DHT22;2760;50.000;9.194;2023-04-29T05:34:10;13.50;99.90
5476;DHT22;2760;50.000;9.194;2023-04-29T05:36:38;13.60;99.90
5476;DHT22;2760;50.000;9.194;2023-04-29T05:39:05;13.60;99.90
5476;DHT22;2760;50.000;9.194;2023-04-29T05:41:32;13.60;99.90
5476;DHT22;2760;50.000;9.194;2023-04-29T05:44:16;13.70;99.90
5476;DHT22;2760;50.000;9.194;2023-04-29T05:46:45;13.70;99.90
5476;DHT22;2760;50.000;9.194;2023-04-29T05:49:13;13.80;99.90
5476;DHT22;2760;50.000;9.194;2023-04-29T05:51:41;13.80;99.90
5476;DHT22;2760;50.000;9.194;2023-04-29T05:54:08;13.80;99.90
5476;DHT22;2760;50.000;9.194;2023-04-29T05:56:36;13.90;99.90
5476;DHT22;2760;50.000;9.194;2023-04-29T05:59:03;13.90;99.90
5476;DHT22;2760;50.000;9.194;2023-04-29T06:01:31;13.90;99.90
5476;DHT22;2760;50.000;9.194;2023-04-29T06:04:00;13.90;99.90
5476;DHT22;2760;50.000;9.194;2023-04-29T06:06:47;13.90;99.90
5476;DHT22;2760;50.000;9.194;2023-04-29T06:09:19;13.70;99.90
5476;DHT22;2760;50.000;9.194;2023-04-29T06:11:47;13.90;99.90
5476;DHT22;2760;50.000;9.194;2023-04-29T06:16:42;13.90;99.90
5476;DHT22;2760;50.000;9.194;2023-04-29T06:19:10;15.70;99.90
5476;DHT22;2760;50.000;9.194;2023-04-29T06:21:36;13.90;99.90
5476;DHT22;2760;50.000;9.194;2023-04-29T06:24:05;14.10;99.90
5476;DHT22;2760;50.000;9.194;2023-04-29T06:28:59;14.10;99.90
5476;DHT22;2760;50.000;9.194;2023-04-29T06:31:29;15.50;99.90
5476;DHT22;2760;50.000;9.194;2023-04-29T06:34:01;14.80;99.90
5476;DHT22;2760;50.000;9.194;2023-04-29T06:36:28;14.10;99.90
5476;DHT22;2760;50.000;9.194;2023-04-29T06:38:59;14.10;99.90
5476;DHT22;2760;50.000;9.194;2023-04-29T06:44:35;14.10;99.90
5476;DHT22;2760;50.000;9.194;2023-04-29T06:47:18;14.30;99.90
5476;DHT22;2760;50.000;9.194;2023-04-29T06:50:10;14.20;99.90
5476;DHT22;2760;50.000;9.194;2023-04-29T06:52:37;14.30;99.90
5476;DHT22;2760;50.000;9.194;2023-04-29T06:55:05;14.30;99.90
5476;DHT22;2760;50.000;9.194;2023-04-29T06:57:34;14.30;99.90
5476;DHT22;2760;50.000;9.194;2023-04-29T07:00:01;14.40;99.90
5476;DHT22;2760;50.000;9.194;2023-04-29T07:02:30;14.30;99.90
5476;DHT22;2760;50.000;9.194;2023-04-29T07:04:57;14.30;99.90
5476;DHT22;2760;50.000;9.194;2023-04-29T07:07:25;14.30;99.90
5476;DHT22;2760;50.000;9.194;2023-04-29T07:09:53;14.10;99.90
5476;DHT22;2760;50.000;9.194;2023-04-29T07:12:20;14.30;99.90
5476;DHT22;2760;50.000;9.194;2023-04-29T07:14:47;14.20;99.90
5476;DHT22;2760;50.000;9.194;2023-04-29T07:17:14;14.20;99.90
5476;DHT22;2760;50.000;9.194;2023-04-29T07:19:41;14.30;99.90
5476;DHT22;2760;50.000;9.194;2023-04-29T07:22:10;16.10;99.90
5476;DHT22;2760;50.000;9.194;2023-04-29T07:24:38;14.40;99.90
5476;DHT22;2760;50.000;9.194;2023-04-29T07:27:06;14.50;99.90
5476;DHT22;2760;50.000;9.194;2023-04-29T07:29:33;14.60;99.90
5476;DHT22;2760;50.000;9.194;2023-04-29T07:32:00;14.50;99.90
5476;DHT22;2760;50.000;9.194;2023-04-29T07:34:27;14.40;99.90
5476;DHT22;2760;50.000;9.194;2023-04-29T07:36:54;14.50;99.90
5476;DHT22;2760;50.000;9.194;2023-04-29T07:39:21;14.50;99.90
5476;DHT22;2760;50.000;9.194;2023-04-29T07:41:55;14.50;99.90
5476;DHT22;2760;50.000;9.194;2023-04-29T07:44:22;14.50;99.90
5476;DHT22;2760;50.000;9.194;2023-04-29T07:46:49;14.50;99.90
5476;DHT22;2760;50.000;9.194;2023-04-29T07:49:17;14.50;99.90
5476;DHT22;2760;50.000;9.194;2023-04-29T07:51:44;14.60;99.90
5476;DHT22;2760;50.000;9.194;2023-04-29T07:54:11;14.30;99.90
5476;DHT22;2760;50.000;9.194;2023-04-29T07:59:08;14.40;99.90
5476;DHT22;2760;50.000;9.194;2023-04-29T08:01:35;14.40;99.90
5476;DHT22;2760;50.000;9.194;2023-04-29T08:04:02;14.50;99.90
5476;DHT22;2760;50.000;9.194;2023-04-29T08:06:31;14.60;99.90
5476;DHT22;2760;50.000;9.194;2023-04-29T08:08:58;14.60;99.90
5476;DHT22;2760;50.000;9.194;2023-04-29T08:11:26;14.50;99.90
5476;DHT22;2760;50.000;9.194;2023-04-29T08:16:23;12.50;99.90
5476;DHT22;2760;50.000;9.194;2023-04-29T08:18:50;14.60;99.90
5476;DHT22;2760;50.000;9.194;2023-04-29T08:21:17;14.80;99.90
5476;DHT22;2760;50.000;9.194;2023-04-29T08:23:44;14.80;99.90
5476;DHT22;2760;50.000;9.194;2023-04-29T08:26:11;14.80;99.90
5476;DHT22;2760;50.000;9.194;2023-04-29T08:28:38;16.70;99.90
5476;DHT22;2760;50.000;9.194;2023-04-29T08:31:06;15.00;99.90
5476;DHT22;2760;50.000;9.194;2023-04-29T08:33:36;15.00;99.90
5476;DHT22;2760;50.000;9.194;2023-04-29T08:36:04;15.00;99.90
5476;DHT22;2760;50.000;9.194;2023-04-29T08:38:33;14.90;99.90
5476;DHT22;2760;50.000;9.194;2023-04-29T08:41:00;14.80;99.90
5476;DHT22;2760;50.000;9.194;2023-04-29T08:43:28;14.80;99.90
5476;DHT22;2760;50.000;9.194;2023-04-29T08:45:57;14.80;99.90
5476;DHT22;2760;50.000;9.194;2023-04-29T08:48:24;15.10;99.90
5476;DHT22;2760;50.000;9.194;2023-04-29T08:50:54;14.80;99.90
5476;DHT22;2760;50.000;9.194;2023-04-29T08:53:23;14.90;99.90
5476;DHT22;2760;50.000;9.194;2023-04-29T08:55:51;14.80;99.90
5476;DHT22;2760;50.000;9.194;2023-04-29T08:58:20;14.80;99.90
5476;DHT22;2760;50.000;9.194;2023-04-29T09:00:48;14.90;99.90
5476;DHT22;2760;50.000;9.194;2023-04-29T09:03:19;14.60;99.90
5476;DHT22;2760;50.000;9.194;2023-04-29T09:05:52;14.70;99.90
5476;DHT22;2760;50.000;9.194;2023-04-29T09:08:21;14.50;99.90
5476;DHT22;2760;50.000;9.194;2023-04-29T09:10:50;14.70;99.90
5476;DHT22;2760;50.000;9.194;2023-04-29T09:13:24;14.60;99.90
5476;DHT22;2760;50.000;9.194;2023-04-29T09:15:53;14.80;99.90
5476;DHT22;2760;50.000;9.194;2023-04-29T09:18:43;14.90;99.90
5476;DHT22;2760;50.000;9.194;2023-04-29T09:21:19;14.70;99.90
5476;DHT22;2760;50.000;9.194;2023-04-29T09:23:49;14.80;99.90
5476;DHT22;2760;50.000;9.194;2023-04-29T09:26:16;15.90;99.90
5476;DHT22;2760;50.000;9.194;2023-04-29T09:28:43;16.20;99.90
5476;DHT22;2760;50.000;9.194;2023-04-29T09:31:12;14.70;99.90
5476;DHT22;2760;50.000;9.194;2023-04-29T09:33:50;14.80;99.90
5476;DHT22;2760;50.000;9.194;2023-04-29T09:36:40;15.00;99.90
5476;DHT22;2760;50.000;9.194;2023-04-29T09:39:09;15.00;99.90
5476;DHT22;2760;50.000;9.194;2023-04-29T09:41:58;15.10;99.90
5476;DHT22;2760;50.000;9.194;2023-04-29T09:44:28;15.30;99.90
5476;DHT22;2760;50.000;9.194;2023-04-29T09:46:56;15.20;99.90
5476;DHT22;2760;50.000;9.194;2023-04-29T09:49:27;15.20;99.90
5476;DHT22;2760;50.000;9.194;2023-04-29T09:51:56;15.30;99.90
5476;DHT22;2760;50.000;9.194;2023-04-29T09:54:26;15.30;99.90
5476;DHT22;2760;50.000;9.194;2023-04-29T09:56:55;15.40;99.90
5476;DHT22;2760;50.000;9.194;2023-04-29T09:59:22;15.40;99.90
5476;DHT22;2760;50.000;9.194;2023-04-29T10:01:51;15.60;99.90
5476;DHT22;2760;50.000;9.194;2023-04-29T10:04:19;15.60;99.90
5476;DHT22;2760;50.000;9.194;2023-04-29T10:06:49;16.20;99.90
5476;DHT22;2760;50.000;9.194;2023-04-29T10:09:18;15.40;99.90
5476;DHT22;2760;50.000;9.194;2023-04-29T10:11:47;15.60;99.90
5476;DHT22;2760;50.000;9.194;2023-04-29T10:14:16;15.50;99.90
5476;DHT22;2760;50.000;9.194;2023-04-29T10:16:45;15.60;99.90
5476;DHT22;2760;50.000;9.194;2023-04-29T10:19:18;15.60;99.90
5476;DHT22;2760;50.000;9.194;2023-04-29T10:21:47;15.50;99.90
5476;DHT22;2760;50.000;9.194;2023-04-29T10:24:16;15.70;99.90
5476;DHT22;2760;50.000;9.194;2023-04-29T10:26:47;15.40;99.90
5476;DHT22;2760;50.000;9.194;2023-04-29T10:29:16;15.40;99.90
5476;DHT22;2760;50.000;9.194;2023-04-29T10:31:45;14.80;99.90
5476;DHT22;2760;50.000;9.194;2023-04-29T10:34:16;14.80;99.90
5476;DHT22;2760;50.000;9.194;2023-04-29T10:36:43;15.00;99.90
5476;DHT22;2760;50.000;9.194;2023-04-29T10:39:17;15.00;99.90
5476;DHT22;2760;50.000;9.194;2023-04-29T10:41:50;15.00;99.90
5476;DHT22;2760;50.000;9.194;2023-04-29T10:44:17;15.10;99.90
5476;DHT22;2760;50.000;9.194;2023-04-29T10:46:44;15.00;99.90
5476;DHT22;2760;50.000;9.194;2023-04-29T10:49:14;15.20;99.90
5476;DHT22;2760;50.000;9.194;2023-04-29T10:51:42;15.00;99.90
5476;DHT22;2760;50.000;9.194;2023-04-29T10:54:12;15.00;99.90
5476;DHT22;2760;50.000;9.194;2023-04-29T10:56:41;15.20;99.90
5476;DHT22;2760;50.000;9.194;2023-04-29T10:59:17;15.20;99.90
5476;DHT22;2760;50.000;9.194;2023-04-29T11:01:48;15.30;99.90
5476;DHT22;2760;50.000;9.194;2023-04-29T11:04:16;15.30;99.90
5476;DHT22;2760;50.000;9.194;2023-04-29T11:06:46;15.30;99.90
5476;DHT22;2760;50.000;9.194;2023-04-29T11:09:17;16.10;99.90
5476;DHT22;2760;50.000;9.194;2023-04-29T11:11:46;15.40;99.90
5476;DHT22;2760;50.000;9.194;2023-04-29T11:14:20;15.60;99.90
5476;DHT22;2760;50.000;9.194;2023-04-29T11:16:51;15.70;99.90
5476;DHT22;2760;50.000;9.194;2023-04-29T11:19:19;15.60;99.90
5476;DHT22;2760;50.000;9.194;2023-04-29T11:21:46;15.80;99.90
5476;DHT22;2760;50.000;9.194;2023-04-29T11:24:13;16.00;99.90
5476;DHT22;2760;50.000;9.194;2023-04-29T11:26:42;16.10;99.90
5476;DHT22;2760;50.000;9.194;2023-04-29T11:29:10;16.10;99.90
5476;DHT22;2760;50.000;9.194;2023-04-29T11:31:40;16.50;99.90
5476;DHT22;2760;50.000;9.194;2023-04-29T11:34:07;16.60;99.90
5476;DHT22;2760;50.000;9.194;2023-04-29T11:36:34;16.60;99.90
5476;DHT22;2760;50.000;9.194;2023-04-29T11:39:02;16.60;99.90
5476;DHT22;2760;50.000;9.194;2023-04-29T11:41:31;16.50;99.90
5476;DHT22;2760;50.000;9.194;2023-04-29T11:44:00;16.90;99.90
5476;DHT22;2760;50.000;9.194;2023-04-29T11:46:29;16.60;99.90
5476;DHT22;2760;50.000;9.194;2023-04-29T11:48:58;16.70;99.90
5476;DHT22;2760;50.000;9.194;2023-04-29T11:51:26;16.60;99.90
5476;DHT22;2760;50.000;9.194;2023-04-29T11:56:22;16.50;99.90
5476;DHT22;2760;50.000;9.194;2023-04-29T11:58:53;18.10;99.90
5476;DHT22;2760;50.000;9.194;2023-04-29T12:01:21;16.90;99.90
5476;DHT22;2760;50.000;9.194;2023-04-29T12:03:48;17.00;99.90
5476;DHT22;2760;50.000;9.194;2023-04-29T12:06:17;16.90;99.90
5476;DHT22;2760;50.000;9.194;2023-04-29T12:08:46;17.10;99.90
5476;DHT22;2760;50.000;9.194;2023-04-29T12:11:13;17.10;99.90
5476;DHT22;2760;50.000;9.194;2023-04-29T12:13:40;16.90;99.90
5476;DHT22;2760;50.000;9.194;2023-04-29T12:16:08;16.90;99.90
5476;DHT22;2760;50.000;9.194;2023-04-29T12:18:36;16.90;99.90
5476;DHT22;2760;50.000;9.194;2023-04-29T12:21:04;16.80;99.90
5476;DHT22;2760;50.000;9.194;2023-04-29T12:23:35;16.90;99.90
5476;DHT22;2760;50.000;9.194;2023-04-29T12:26:03;16.80;99.90
5476;DHT22;2760;50.000;9.194;2023-04-29T12:28:30;16.90;99.90
5476;DHT22;2760;50.000;9.194;2023-04-29T12:30:58;16.80;99.90
5476;DHT22;2760;50.000;9.194;2023-04-29T12:33:27;16.60;99.90
5476;DHT22;2760;50.000;9.194;2023-04-29T12:35:57;16.60;99.90
5476;DHT22;2760;50.000;9.194;2023-04-29T12:38:26;16.60;99.90
5476;DHT22;2760;50.000;9.194;2023-04-29T12:40:56;16.60;99.90
5476;DHT22;2760;50.000;9.194;2023-04-29T12:43:27;16.40;99.90
5476;DHT22;2760;50.000;9.194;2023-04-29T12:45:59;17.10;99.90
5476;DHT22;2760;50.000;9.194;2023-04-29T12:48:29;16.40;99.90
5476;DHT22;2760;50.000;9.194;2023-04-29T12:50:57;16.40;99.90
5476;DHT22;2760;50.000;9.194;2023-04-29T12:53:25;16.20;99.90
5476;DHT22;2760;50.000;9.194;2023-04-29T12:55:55;16.30;99.90
5476;DHT22;2760;50.000;9.194;2023-04-29T12:58:23;15.90;99.90
5476;DHT22;2760;50.000;9.194;2023-04-29T13:00:50;15.90;99.90
5476;DHT22;2760;50.000;9.194;2023-04-29T13:03:16;15.80;99.90
5476;DHT22;2760;50.000;9.194;2023-04-29T13:05:44;16.10;99.90
5476;DHT22;2760;50.000;9.194;2023-04-29T13:08:13;16.20;99.90
5476;DHT22;2760;50.000;9.194;2023-04-29T13:10:40;14.90;99.90
5476;DHT22;2760;50.000;9.194;2023-04-29T13:13:08;16.50;99.90
5476;DHT22;2760;50.000;9.194;2023-04-29T13:15:35;16.70;99.90
5476;DHT22;2760;50.000;9.194;2023-04-29T13:20:30;16.20;99.90
5476;DHT22;2760;50.000;9.194;2023-04-29T13:25:25;15.90;99.90
5476;DHT22;2760;50.000;9.194;2023-04-29T13:27:52;15.70;99.90
5476;DHT22;2760;50.000;9.194;2023-04-29T13:30:21;15.60;99.90
5476;DHT22;2760;50.000;9.194;2023-04-29T13:32:48;15.60;99.90
5476;DHT22;2760;50.000;9.194;2023-04-29T13:37:44;15.50;99.90
5476;DHT22;2760;50.000;9.194;2023-04-29T13:40:11;15.40;99.90
5476;DHT22;2760;50.000;9.194;2023-04-29T13:45:06;15.30;99.90
5476;DHT22;2760;50.000;9.194;2023-04-29T13:47:34;15.20;99.90
5476;DHT22;2760;50.000;9.194;2023-04-29T13:50:01;15.40;99.90
5476;DHT22;2760;50.000;9.194;2023-04-29T13:52:28;15.40;99.90
5476;DHT22;2760;50.000;9.194;2023-04-29T13:54:56;15.50;99.90
5476;DHT22;2760;50.000;9.194;2023-04-29T13:57:22;15.60;99.90
5476;DHT22;2760;50.000;9.194;2023-04-29T13:59:52;15.50;99.90
5476;DHT22;2760;50.000;9.194;2023-04-29T14:02:20;15.60;99.90
5476;DHT22;2760;50.000;9.194;2023-04-29T14:04:49;15.60;99.90
5476;DHT22;2760;50.000;9.194;2023-04-29T14:07:16;15.60;99.90
5476;DHT22;2760;50.000;9.194;2023-04-29T14:09:43;16.60;99.90
5476;DHT22;2760;50.000;9.194;2023-04-29T14:12:10;16.20;99.90
5476;DHT22;2760;50.000;9.194;2023-04-29T14:14:37;15.90;99.90
5476;DHT22;2760;50.000;9.194;2023-04-29T14:17:04;15.90;99.90
5476;DHT22;2760;50.000;9.194;2023-04-29T14:19:31;16.10;99.90
5476;DHT22;2760;50.000;9.194;2023-04-29T14:21:59;16.00;99.90
5476;DHT22;2760;50.000;9.194;2023-04-29T14:24:26;15.80;99.90
5476;DHT22;2760;50.000;9.194;2023-04-29T14:26:53;16.00;99.90
5476;DHT22;2760;50.000;9.194;2023-04-29T14:29:20;16.00;99.90
5476;DHT22;2760;50.000;9.194;2023-04-29T14:31:48;16.40;99.90
5476;DHT22;2760;50.000;9.194;2023-04-29T14:34:15;16.30;99.90
5476;DHT22;2760;50.000;9.194;2023-04-29T14:36:44;16.30;99.90
5476;DHT22;2760;50.000;9.194;2023-04-29T14:39:12;16.30;99.90
5476;DHT22;2760;50.000;9.194;2023-04-29T14:41:39;17.10;99.90
5476;DHT22;2760;50.000;9.194;2023-04-29T14:44:09;17.30;99.90
5476;DHT22;2760;50.000;9.194;2023-04-29T14:46:36;16.40;99.90
5476;DHT22;2760;50.000;9.194;2023-04-29T14:49:03;16.10;99.90
5476;DHT22;2760;50.000;9.194;2023-04-29T14:51:30;16.10;99.90
5476;DHT22;2760;50.000;9.194;2023-04-29T14:53:57;16.20;99.90
5476;DHT22;2760;50.000;9.194;2023-04-29T14:56:27;16.20;99.90
5476;DHT22;2760;50.000;9.194;2023-04-29T14:58:54;17.70;99.90
5476;DHT22;2760;50.000;9.194;2023-04-29T15:01:21;16.10;99.90
5476;DHT22;2760;50.000;9.194;2023-04-29T15:03:51;16.10;99.90
5476;DHT22;2760;50.000;9.194;2023-04-29T15:06:19;16.20;99.90
5476;DHT22;2760;50.000;9.194;2023-04-29T15:08:46;16.00;99.90
5476;DHT22;2760;50.000;9.194;2023-04-29T15:11:13;16.00;99.90
5476;DHT22;2760;50.000;9.194;2023-04-29T15:13:42;15.90;99.90
5476;DHT22;2760;50.000;9.194;2023-04-29T15:16:09;15.80;99.90
5476;DHT22;2760;50.000;9.194;2023-04-29T15:18:36;15.80;99.90
5476;DHT22;2760;50.000;9.194;2023-04-29T15:21:03;16.80;99.90
5476;DHT22;2760;50.000;9.194;2023-04-29T15:23:30;15.60;99.90
5476;DHT22;2760;50.000;9.194;2023-04-29T15:25:57;15.60;99.90
5476;DHT22;2760;50.000;9.194;2023-04-29T15:28:25;15.70;99.90
5476;DHT22;2760;50.000;9.194;2023-04-29T15:30:53;14.20;99.90
5476;DHT22;2760;50.000;9.194;2023-04-29T15:33:20;15.60;99.90
5476;DHT22;2760;50.000;9.194;2023-04-29T15:35:47;17.30;99.90
5476;DHT22;2760;50.000;9.194;2023-04-29T15:38:14;15.70;99.90
5476;DHT22;2760;50.000;9.194;2023-04-29T15:40:41;15.50;99.90
5476;DHT22;2760;50.000;9.194;2023-04-29T15:43:08;15.40;99.90
5476;DHT22;2760;50.000;9.194;2023-04-29T15:45:35;13.40;99.90
5476;DHT22;2760;50.000;9.194;2023-04-29T15:48:04;15.30;99.90
5476;DHT22;2760;50.000;9.194;2023-04-29T15:50:31;15.10;99.90
5476;DHT22;2760;50.000;9.194;2023-04-29T15:52:58;14.90;99.90
5476;DHT22;2760;50.000;9.194;2023-04-29T15:55:25;15.00;99.90
5476;DHT22;2760;50.000;9.194;2023-04-29T15:57:52;15.10;99.90
5476;DHT22;2760;50.000;9.194;2023-04-29T16:00:19;14.90;99.90
5476;DHT22;2760;50.000;9.194;2023-04-29T16:02:46;14.90;99.90
5476;DHT22;2760;50.000;9.194;2023-04-29T16:05:14;15.00;99.90
5476;DHT22;2760;50.000;9.194;2023-04-29T16:07:41;15.00;99.90
5476;DHT22;2760;50.000;9.194;2023-04-29T16:10:08;15.10;99.90
5476;DHT22;2760;50.000;9.194;2023-04-29T16:12:35;15.10;99.90
5476;DHT22;2760;50.000;9.194;2023-04-29T16:17:33;15.00;99.90
5476;DHT22;2760;50.000;9.194;2023-04-29T16:20:00;14.80;99.90
5476;DHT22;2760;50.000;9.194;2023-04-29T16:22:29;14.80;99.90
5476;DHT22;2760;50.000;9.194;2023-04-29T16:24:57;15.00;99.90
5476;DHT22;2760;50.000;9.194;2023-04-29T16:27:24;15.00;99.90
5476;DHT22;2760;50.000;9.194;2023-04-29T16:29:51;16.10;99.90
5476;DHT22;2760;50.000;9.194;2023-04-29T16:32:18;15.20;99.90
5476;DHT22;2760;50.000;9.194;2023-04-29T16:34:45;15.00;99.90
5476;DHT22;2760;50.000;9.194;2023-04-29T16:39:41;15.00;99.90
5476;DHT22;2760;50.000;9.194;2023-04-29T16:44:36;15.00;99.90
5476;DHT22;2760;50.000;9.194;2023-04-29T16:47:03;15.10;99.90
5476;DHT22;2760;50.000;9.194;2023-04-29T16:49:30;15.10;99.90
5476;DHT22;2760;50.000;9.194;2023-04-29T16:51:58;15.10;99.90
5476;DHT22;2760;50.000;9.194;2023-04-29T16:54:25;15.20;99.90
5476;DHT22;2760;50.000;9.194;2023-04-29T16:56:53;13.90;99.90
5476;DHT22;2760;50.000;9.194;2023-04-29T16:59:20;15.20;99.90
5476;DHT22;2760;50.000;9.194;2023-04-29T17:01:47;12.60;99.90
5476;DHT22;2760;50.000;9.194;2023-04-29T17:04:14;15.10;99.90
5476;DHT22;2760;50.000;9.194;2023-04-29T17:06:41;16.10;99.90
5476;DHT22;2760;50.000;9.194;2023-04-29T17:09:08;15.00;99.90
5476;DHT22;2760;50.000;9.194;2023-04-29T17:14:04;15.00;99.90
5476;DHT22;2760;50.000;9.194;2023-04-29T17:16:31;12.80;99.90
5476;DHT22;2760;50.000;9.194;2023-04-29T17:18:59;14.90;99.90
5476;DHT22;2760;50.000;9.194;2023-04-29T17:21:27;16.90;99.90